createdAt,value
2019-03-31T00:00:34.656Z,14.20
2019-03-31T00:03:03.312Z,14.10
2019-03-31T00:05:32.034Z,14.10
2019-03-31T00:08:00.717Z,14.10
2019-03-31T00:10:32.623Z,14.00
2019-03-31T00:13:06.919Z,14.00
2019-03-31T00:15:35.476Z,14.00
2019-03-31T00:18:07.031Z,14.00
2019-03-31T00:20:35.630Z,13.90
2019-03-31T00:23:06.838Z,13.90
2019-03-31T00:25:35.446Z,13.90
2019-03-31T00:28:04.094Z,13.80
2019-03-31T00:30:36.740Z,13.80
2019-03-31T00:33:05.422Z,13.80
2019-03-31T00:35:34.178Z,13.70
2019-03-31T00:38:06.815Z,13.70
2019-03-31T00:40:32.992Z,13.70
2019-03-31T00:43:01.570Z,13.70
2019-03-31T00:45:30.188Z,13.60
2019-03-31T00:48:00.944Z,13.60
2019-03-31T00:50:29.568Z,13.60
2019-03-31T00:52:58.215Z,13.50
2019-03-31T00:55:26.790Z,13.50
2019-03-31T00:57:55.426Z,13.50
2019-03-31T01:00:42.465Z,13.50
2019-03-31T01:04:19.364Z,13.40
2019-03-31T01:06:03.332Z,13.40
2019-03-31T01:08:33.941Z,13.40
2019-03-31T01:11:08.150Z,13.40
2019-03-31T01:13:39.779Z,13.40
2019-03-31T01:16:08.705Z,13.40
2019-03-31T01:18:37.362Z,13.40
2019-03-31T01:21:06.014Z,13.30
2019-03-31T01:23:35.124Z,13.30
2019-03-31T01:26:03.851Z,13.30
2019-03-31T01:28:32.877Z,13.30
2019-03-31T01:31:01.589Z,13.20
2019-03-31T01:33:30.606Z,13.20
2019-03-31T01:35:59.186Z,13.10
2019-03-31T01:38:27.828Z,13.20
2019-03-31T01:40:56.589Z,13.20
2019-03-31T01:43:25.238Z,13.10
2019-03-31T01:45:53.933Z,13.10
2019-03-31T01:48:22.531Z,13.10
2019-03-31T01:50:51.523Z,13.10
2019-03-31T01:53:20.410Z,13.10
2019-03-31T01:55:49.364Z,13.10
2019-03-31T01:58:19.501Z,13.00
2019-03-31T02:00:55.621Z,13.00
2019-03-31T02:03:24.361Z,13.00
2019-03-31T02:05:52.931Z,13.00
2019-03-31T02:08:21.601Z,12.90
2019-03-31T02:10:50.275Z,12.90
2019-03-31T02:13:19.961Z,12.90
2019-03-31T02:15:48.975Z,12.90
2019-03-31T02:18:18.817Z,12.90
2019-03-31T02:20:47.982Z,12.90
2019-03-31T02:23:16.591Z,12.90
2019-03-31T02:25:45.232Z,12.90
2019-03-31T02:28:13.839Z,12.80
2019-03-31T02:30:42.462Z,12.80
2019-03-31T02:33:11.106Z,12.80
2019-03-31T02:35:39.798Z,12.70
2019-03-31T02:38:11.101Z,12.70
2019-03-31T02:40:39.716Z,12.70
2019-03-31T02:43:08.329Z,12.70
2019-03-31T02:45:36.906Z,12.70
2019-03-31T02:48:05.614Z,12.60
2019-03-31T02:50:52.067Z,12.60
2019-03-31T02:53:21.854Z,12.60
2019-03-31T02:55:51.027Z,12.60
2019-03-31T02:58:20.350Z,12.50
2019-03-31T03:00:51.751Z,12.50
2019-03-31T03:03:21.905Z,12.40
2019-03-31T03:05:51.421Z,12.40
2019-03-31T03:08:20.921Z,12.40
2019-03-31T03:10:52.235Z,12.40
2019-03-31T03:13:26.769Z,12.30
2019-03-31T03:16:14.667Z,12.30
2019-03-31T03:18:43.354Z,12.30
2019-03-31T03:21:12.497Z,12.30
2019-03-31T03:23:41.192Z,12.20
2019-03-31T03:26:09.821Z,12.10
2019-03-31T03:28:38.739Z,12.10
2019-03-31T03:31:14.988Z,12.10
2019-03-31T03:33:40.775Z,12.10
2019-03-31T03:36:09.403Z,12.10
2019-03-31T03:38:37.966Z,12.10
2019-03-31T03:41:06.561Z,12.10
2019-03-31T03:43:53.570Z,12.10
2019-03-31T03:46:05.663Z,12.10
2019-03-31T03:48:34.787Z,12.10
2019-03-31T03:51:06.469Z,12.10
2019-03-31T03:53:35.189Z,12.10
2019-03-31T03:56:04.354Z,12.10
2019-03-31T03:58:41.665Z,12.10
2019-03-31T04:01:15.152Z,12.00
2019-03-31T04:03:43.676Z,12.00
2019-03-31T04:06:12.420Z,12.00
2019-03-31T04:08:41.089Z,12.10
2019-03-31T04:11:12.429Z,12.10
2019-03-31T04:13:41.069Z,12.10
2019-03-31T04:16:09.816Z,12.00
2019-03-31T04:18:40.251Z,12.00
2019-03-31T04:21:10.751Z,12.00
2019-03-31T04:23:39.502Z,12.00
2019-03-31T04:26:08.164Z,12.00
2019-03-31T04:28:36.905Z,12.00
2019-03-31T04:31:05.595Z,12.00
2019-03-31T04:33:49.650Z,12.00
2019-03-31T04:36:04.624Z,12.00
2019-03-31T04:38:33.191Z,11.90
2019-03-31T04:41:04.779Z,11.90
2019-03-31T04:43:33.422Z,11.90
2019-03-31T04:46:04.813Z,11.90
2019-03-31T04:48:33.542Z,11.80
2019-03-31T04:51:03.649Z,11.80
2019-03-31T04:53:34.135Z,11.80
2019-03-31T04:56:02.772Z,11.70
2019-03-31T04:58:31.472Z,11.70
2019-03-31T05:01:00.415Z,11.70
2019-03-31T05:03:28.997Z,11.70
2019-03-31T05:05:57.677Z,11.60
2019-03-31T05:08:26.380Z,11.60
2019-03-31T05:10:54.965Z,11.60
2019-03-31T05:13:23.547Z,11.60
2019-03-31T05:15:52.499Z,11.50
2019-03-31T05:18:23.453Z,11.50
2019-03-31T05:20:52.080Z,11.50
2019-03-31T05:23:20.632Z,11.50
2019-03-31T05:25:49.296Z,11.50
2019-03-31T05:28:22.365Z,11.40
2019-03-31T05:30:51.042Z,11.40
2019-03-31T05:33:19.683Z,11.40
2019-03-31T05:35:54.973Z,11.40
2019-03-31T05:38:23.923Z,11.40
2019-03-31T05:40:52.499Z,11.40
2019-03-31T05:43:21.091Z,11.40
2019-03-31T05:45:52.348Z,11.40
2019-03-31T05:48:20.117Z,11.40
2019-03-31T05:50:48.843Z,11.40
2019-03-31T05:53:20.539Z,11.40
2019-03-31T05:55:49.197Z,11.40
2019-03-31T05:58:17.848Z,11.40
2019-03-31T06:00:46.487Z,11.40
2019-03-31T06:03:17.817Z,11.40
2019-03-31T06:05:49.178Z,11.40
2019-03-31T06:08:18.218Z,11.40
2019-03-31T06:10:46.923Z,11.40
2019-03-31T06:13:19.851Z,11.40
2019-03-31T06:15:48.460Z,11.40
2019-03-31T06:18:17.095Z,11.40
2019-03-31T06:20:45.902Z,11.40
2019-03-31T06:23:20.516Z,11.40
2019-03-31T06:25:49.594Z,11.40
2019-03-31T06:28:18.487Z,11.40
2019-03-31T06:30:47.298Z,11.40
2019-03-31T06:33:17.999Z,11.50
2019-03-31T06:35:46.714Z,11.50
2019-03-31T06:38:15.342Z,11.50
2019-03-31T06:40:45.735Z,11.50
2019-03-31T06:43:14.296Z,11.50
2019-03-31T06:45:43.363Z,11.50
2019-03-31T06:48:12.240Z,11.50
2019-03-31T06:50:43.966Z,11.60
2019-03-31T06:53:12.861Z,11.60
2019-03-31T06:55:41.427Z,11.60
2019-03-31T06:58:10.299Z,11.60
2019-03-31T07:00:38.880Z,11.70
2019-03-31T07:03:07.690Z,11.70
2019-03-31T07:05:36.364Z,11.70
2019-03-31T07:08:05.932Z,11.80
2019-03-31T07:10:35.093Z,11.80
2019-03-31T07:13:03.712Z,11.90
2019-03-31T07:15:32.382Z,11.90
2019-03-31T07:18:01.146Z,11.90
2019-03-31T07:20:29.985Z,11.90
2019-03-31T07:22:58.699Z,12.00
2019-03-31T07:25:28.276Z,12.00
2019-03-31T07:28:02.776Z,12.00
2019-03-31T07:30:31.525Z,12.00
2019-03-31T07:33:05.221Z,12.10
2019-03-31T07:35:34.101Z,12.10
2019-03-31T07:38:02.782Z,12.20
2019-03-31T07:40:32.078Z,12.20
2019-03-31T07:43:00.907Z,12.20
2019-03-31T07:45:29.519Z,12.30
2019-03-31T07:47:58.151Z,12.30
2019-03-31T07:50:29.831Z,12.30
2019-03-31T07:52:58.337Z,12.40
2019-03-31T07:55:27.034Z,12.40
2019-03-31T07:57:55.714Z,12.50
2019-03-31T08:00:25.822Z,12.50
2019-03-31T08:02:54.583Z,12.40
2019-03-31T08:05:44.240Z,12.60
2019-03-31T08:08:13.830Z,12.60
2019-03-31T08:11:03.103Z,12.70
2019-03-31T08:13:31.871Z,12.70
2019-03-31T08:16:03.216Z,12.70
2019-03-31T08:18:31.806Z,12.80
2019-03-31T08:21:00.454Z,12.90
2019-03-31T08:23:29.070Z,12.90
2019-03-31T08:25:57.623Z,13.00
2019-03-31T08:28:26.277Z,13.10
2019-03-31T08:30:54.849Z,13.10
2019-03-31T08:33:23.447Z,13.10
2019-03-31T08:35:52.355Z,13.20
2019-03-31T08:38:24.294Z,13.30
2019-03-31T08:40:51.989Z,13.30
2019-03-31T08:43:21.718Z,13.40
2019-03-31T08:45:50.557Z,13.40
2019-03-31T08:48:19.471Z,13.50
2019-03-31T08:50:48.095Z,13.50
2019-03-31T08:53:16.983Z,13.60
2019-03-31T08:55:45.594Z,13.70
2019-03-31T08:58:14.391Z,13.70
2019-03-31T09:00:53.497Z,13.70
2019-03-31T09:03:26.987Z,13.80
2019-03-31T09:06:01.960Z,13.90
2019-03-31T09:08:28.883Z,14.00
2019-03-31T09:10:59.926Z,14.00
2019-03-31T09:13:28.541Z,14.10
2019-03-31T09:16:02.925Z,14.20
2019-03-31T09:18:32.494Z,14.20
2019-03-31T09:21:01.068Z,14.30
2019-03-31T09:23:29.858Z,14.40
2019-03-31T09:25:58.466Z,14.50
2019-03-31T09:28:27.025Z,14.50
2019-03-31T09:31:00.063Z,14.70
2019-03-31T09:33:29.758Z,14.70
2019-03-31T09:35:58.409Z,14.70
2019-03-31T09:38:27.063Z,14.80
2019-03-31T09:40:57.374Z,14.90
2019-03-31T09:43:25.982Z,14.80
2019-03-31T09:45:54.585Z,14.80
2019-03-31T09:48:24.162Z,14.90
2019-03-31T09:50:52.782Z,15.00
2019-03-31T09:53:21.445Z,15.00
2019-03-31T09:55:50.153Z,15.10
2019-03-31T09:58:24.244Z,15.30
2019-03-31T10:01:00.816Z,15.40
2019-03-31T10:03:29.112Z,15.50
2019-03-31T10:06:09.953Z,15.50
2019-03-31T10:08:28.451Z,15.60
2019-03-31T10:11:02.711Z,15.60
2019-03-31T10:13:30.188Z,15.60
2019-03-31T10:15:58.877Z,15.70
2019-03-31T10:18:42.096Z,15.80
2019-03-31T10:21:10.774Z,15.90
2019-03-31T10:23:43.715Z,15.90
2019-03-31T10:26:12.437Z,15.90
2019-03-31T10:28:48.639Z,15.80
2019-03-31T10:31:16.431Z,15.80
2019-03-31T10:33:46.633Z,15.90
2019-03-31T10:36:16.317Z,16.00
2019-03-31T10:38:45.016Z,16.20
2019-03-31T10:41:20.179Z,16.30
2019-03-31T10:43:57.414Z,16.40
2019-03-31T10:46:26.438Z,16.40
2019-03-31T10:48:55.003Z,16.50
2019-03-31T10:51:24.307Z,16.60
2019-03-31T10:53:54.839Z,16.70
2019-03-31T10:56:23.562Z,16.80
2019-03-31T10:58:52.130Z,16.80
2019-03-31T11:01:20.738Z,16.90
2019-03-31T11:03:53.582Z,16.90
2019-03-31T11:06:22.235Z,16.90
2019-03-31T11:08:50.940Z,16.90
2019-03-31T11:11:19.625Z,16.80
2019-03-31T11:13:48.181Z,16.80
2019-03-31T11:16:16.738Z,16.80
2019-03-31T11:18:51.627Z,16.80
2019-03-31T11:21:22.195Z,16.90
2019-03-31T11:23:50.810Z,17.00
2019-03-31T11:26:19.460Z,17.10
2019-03-31T11:28:54.026Z,17.20
2019-03-31T11:31:22.642Z,17.20
2019-03-31T11:33:51.189Z,17.30
2019-03-31T11:36:19.874Z,17.30
2019-03-31T11:38:48.442Z,17.40
2019-03-31T11:41:17.037Z,17.40
2019-03-31T11:43:47.331Z,17.40
2019-03-31T11:46:16.031Z,17.50
2019-03-31T11:48:45.214Z,17.50
2019-03-31T11:51:13.789Z,17.50
2019-03-31T11:53:43.890Z,17.60
2019-03-31T11:56:17.522Z,17.50
2019-03-31T11:58:45.822Z,17.50
2019-03-31T12:01:14.579Z,17.50
2019-03-31T12:03:43.222Z,17.50
2019-03-31T12:06:11.794Z,17.50
2019-03-31T12:08:41.404Z,17.50
2019-03-31T12:11:09.991Z,17.50
2019-03-31T12:13:44.371Z,17.40
2019-03-31T12:16:13.575Z,17.40
2019-03-31T12:18:51.235Z,17.30
2019-03-31T12:21:19.833Z,17.30
2019-03-31T12:23:48.407Z,17.20
2019-03-31T12:26:16.983Z,17.10
2019-03-31T12:28:45.612Z,17.10
2019-03-31T12:31:19.618Z,17.10
2019-03-31T12:33:48.217Z,17.30
2019-03-31T12:36:24.426Z,17.40
2019-03-31T12:38:56.065Z,17.50
2019-03-31T12:41:24.861Z,17.60
2019-03-31T12:43:55.201Z,17.70
2019-03-31T12:46:26.890Z,17.80
2019-03-31T12:48:55.527Z,17.80
2019-03-31T12:51:24.234Z,17.90
2019-03-31T12:53:52.785Z,17.90
2019-03-31T12:56:29.020Z,17.70
2019-03-31T12:58:57.619Z,17.70
2019-03-31T13:01:26.193Z,17.70
2019-03-31T13:03:54.781Z,17.80
2019-03-31T13:06:26.521Z,17.80
2019-03-31T13:08:56.644Z,17.80
2019-03-31T13:11:25.805Z,17.90
2019-03-31T13:13:55.535Z,18.00
2019-03-31T13:16:31.109Z,18.10
2019-03-31T13:19:06.197Z,18.00
2019-03-31T13:21:34.820Z,18.10
2019-03-31T13:24:03.539Z,17.80
2019-03-31T13:26:38.902Z,17.60
2019-03-31T13:29:09.844Z,17.40
2019-03-31T13:31:40.011Z,17.40
2019-03-31T13:34:09.206Z,17.60
2019-03-31T13:37:00.516Z,17.80
2019-03-31T13:42:34.917Z,18.30
2019-03-31T13:45:04.552Z,18.50
2019-03-31T13:47:39.948Z,18.60
2019-03-31T13:50:10.942Z,18.20
2019-03-31T13:53:22.685Z,18.00
2019-03-31T13:55:42.538Z,18.00
2019-03-31T13:58:15.267Z,17.90
2019-03-31T14:00:49.996Z,17.50
2019-03-31T14:03:34.000Z,17.50
2019-03-31T14:06:02.573Z,17.60
2019-03-31T14:08:31.223Z,17.50
2019-03-31T14:11:00.222Z,17.40
2019-03-31T14:13:29.150Z,17.40
2019-03-31T14:16:00.721Z,17.40
2019-03-31T14:18:29.309Z,17.20
2019-03-31T14:21:00.827Z,17.40
2019-03-31T14:26:11.856Z,17.20
2019-03-31T14:28:40.728Z,17.20
2019-03-31T14:31:09.439Z,17.40
2019-03-31T14:33:43.158Z,17.60
2019-03-31T14:36:11.828Z,18.00
2019-03-31T14:38:40.766Z,18.20
2019-03-31T14:41:10.928Z,18.00
2019-03-31T14:43:39.568Z,18.20
2019-03-31T14:46:08.136Z,18.30
2019-03-31T14:48:39.572Z,18.50
2019-03-31T14:51:08.132Z,18.80
2019-03-31T14:53:36.764Z,18.90
2019-03-31T14:56:05.726Z,19.00
2019-03-31T14:58:37.322Z,19.20
2019-03-31T15:01:05.977Z,18.90
2019-03-31T15:03:34.537Z,18.70
2019-03-31T15:06:03.907Z,18.50
2019-03-31T15:08:32.558Z,18.30
2019-03-31T15:11:03.801Z,18.30
2019-03-31T15:13:32.388Z,18.20
2019-03-31T15:16:02.503Z,18.20
2019-03-31T15:18:32.593Z,18.10
2019-03-31T15:21:03.339Z,18.00
2019-03-31T15:23:33.988Z,17.80
2019-03-31T15:26:04.925Z,17.90
2019-03-31T15:28:33.700Z,18.20
2019-03-31T15:31:04.981Z,18.50
2019-03-31T15:33:33.567Z,18.60
2019-03-31T15:36:05.140Z,18.70
2019-03-31T15:38:33.803Z,18.80
2019-03-31T15:41:05.299Z,18.70
2019-03-31T15:43:36.364Z,18.70
2019-03-31T15:46:04.965Z,18.40
2019-03-31T15:48:33.904Z,18.60
2019-03-31T15:51:02.565Z,18.90
2019-03-31T15:53:32.768Z,18.80
2019-03-31T15:56:01.351Z,18.50
2019-03-31T15:58:32.159Z,18.20
2019-03-31T16:01:00.723Z,18.10
2019-03-31T16:03:29.318Z,17.90
2019-03-31T16:05:58.029Z,17.60
2019-03-31T16:08:29.559Z,17.60
2019-03-31T16:10:59.198Z,17.40
2019-03-31T16:13:30.473Z,17.20
2019-03-31T16:16:01.707Z,17.20
2019-03-31T16:18:32.408Z,17.10
2019-03-31T16:21:00.655Z,17.20
2019-03-31T16:23:29.300Z,17.40
2019-03-31T16:25:58.747Z,17.60
2019-03-31T16:28:27.505Z,17.70
2019-03-31T16:30:56.138Z,17.70
2019-03-31T16:33:27.739Z,17.80
2019-03-31T16:35:56.337Z,18.00
2019-03-31T16:38:25.840Z,18.20
2019-03-31T16:40:54.698Z,18.20
2019-03-31T16:43:23.266Z,17.90
2019-03-31T16:45:51.884Z,17.70
2019-03-31T16:48:20.450Z,17.60
2019-03-31T16:50:52.085Z,17.50
2019-03-31T16:53:20.673Z,17.30
2019-03-31T16:55:49.237Z,17.30
2019-03-31T16:58:20.759Z,17.30
2019-03-31T17:00:49.371Z,17.30
2019-03-31T17:03:18.329Z,17.30
2019-03-31T17:05:51.120Z,17.40
2019-03-31T17:08:19.766Z,17.50
2019-03-31T17:10:48.354Z,17.60
2019-03-31T17:13:16.924Z,17.90
2019-03-31T17:15:45.572Z,18.00
2019-03-31T17:18:16.893Z,18.00
2019-03-31T17:20:46.641Z,17.80
2019-03-31T17:23:15.639Z,17.70
2019-03-31T17:25:44.401Z,17.60
2019-03-31T17:28:14.620Z,17.60
2019-03-31T17:30:43.628Z,17.50
2019-03-31T17:33:12.371Z,17.40
2019-03-31T17:35:41.667Z,17.30
2019-03-31T17:38:10.564Z,17.20
2019-03-31T17:40:40.467Z,17.00
2019-03-31T17:43:13.247Z,16.90
2019-03-31T17:45:50.637Z,16.70
2019-03-31T17:48:19.264Z,16.60
2019-03-31T17:50:47.852Z,16.60
2019-03-31T17:53:16.952Z,16.50
2019-03-31T17:55:55.632Z,16.40
2019-03-31T17:58:24.742Z,16.30
2019-03-31T18:00:53.429Z,16.20
2019-03-31T18:03:30.762Z,16.20
2019-03-31T18:06:07.787Z,16.20
2019-03-31T18:08:44.387Z,16.20
2019-03-31T18:11:15.814Z,16.10
2019-03-31T18:13:49.354Z,16.10
2019-03-31T18:16:18.041Z,16.10
2019-03-31T18:18:46.726Z,16.00
2019-03-31T18:21:15.429Z,16.00
2019-03-31T18:23:44.037Z,16.00
2019-03-31T18:26:16.782Z,16.00
2019-03-31T18:28:45.382Z,16.00
2019-03-31T18:31:13.999Z,16.00
2019-03-31T18:33:43.487Z,15.90
2019-03-31T18:36:12.173Z,15.90
2019-03-31T18:38:40.811Z,15.80
2019-03-31T18:41:12.553Z,15.80
2019-03-31T18:43:51.196Z,15.80
2019-03-31T18:46:14.444Z,15.80
2019-03-31T18:48:43.216Z,15.70
2019-03-31T18:51:14.772Z,15.80
2019-03-31T18:54:02.249Z,15.80
2019-03-31T18:56:48.397Z,15.70
2019-03-31T18:59:30.903Z,15.70
2019-03-31T19:02:01.151Z,15.70
2019-03-31T19:04:40.960Z,15.60
2019-03-31T19:07:14.530Z,15.60
2019-03-31T19:09:55.376Z,15.60
2019-03-31T19:12:42.046Z,15.50
2019-03-31T19:15:26.949Z,15.50
2019-03-31T19:18:12.115Z,15.40
2019-03-31T19:20:51.631Z,15.30
2019-03-31T19:23:30.940Z,15.20
2019-03-31T19:26:03.364Z,15.20
2019-03-31T19:28:36.322Z,15.20
2019-03-31T19:31:26.614Z,15.20
2019-03-31T19:34:02.568Z,15.10
2019-03-31T19:36:35.486Z,15.10
2019-03-31T19:39:08.572Z,15.10
2019-03-31T19:41:45.004Z,15.10
2019-03-31T19:44:24.659Z,15.10
2019-03-31T19:46:55.229Z,15.00
2019-03-31T19:49:40.244Z,15.00
2019-03-31T19:52:10.499Z,14.90
2019-03-31T19:54:50.732Z,14.90
2019-03-31T19:57:21.106Z,14.90
2019-03-31T20:00:11.743Z,14.90
2019-03-31T20:02:44.559Z,14.90
2019-03-31T20:05:14.810Z,14.80
2019-03-31T20:07:48.084Z,14.80
2019-03-31T20:10:18.455Z,14.70
2019-03-31T20:12:49.657Z,14.60
2019-03-31T20:15:32.003Z,14.50
2019-03-31T20:18:17.139Z,14.50
2019-03-31T20:20:59.425Z,14.50
2019-03-31T20:23:32.404Z,14.50
2019-03-31T20:26:17.493Z,14.40
2019-03-31T20:28:47.711Z,14.40
2019-03-31T20:31:17.911Z,14.40
2019-03-31T20:33:51.220Z,14.50
2019-03-31T20:36:38.551Z,14.40
2019-03-31T20:39:26.460Z,14.40
2019-03-31T20:42:13.954Z,14.40
2019-03-31T20:44:42.530Z,14.40
2019-03-31T20:47:11.444Z,14.30
2019-03-31T20:49:44.979Z,14.30
2019-03-31T20:52:13.479Z,14.30
2019-03-31T20:54:42.089Z,14.30
2019-03-31T20:57:13.407Z,14.20
2019-03-31T20:59:42.895Z,14.20
2019-03-31T21:02:11.623Z,14.20
2019-03-31T21:04:43.516Z,14.20
2019-03-31T21:07:12.187Z,14.20
2019-03-31T21:09:45.047Z,14.20
2019-03-31T21:12:10.963Z,14.20
2019-03-31T21:14:39.591Z,14.20
2019-03-31T21:17:08.401Z,14.20
2019-03-31T21:19:37.045Z,14.10
2019-03-31T21:22:07.203Z,14.10
2019-03-31T21:24:35.922Z,14.10
2019-03-31T21:27:04.650Z,14.00
2019-03-31T21:29:33.356Z,14.20
2019-03-31T21:32:01.986Z,13.90
2019-03-31T21:34:30.652Z,13.90
2019-03-31T21:36:59.228Z,14.00
2019-03-31T21:39:27.916Z,13.90
2019-03-31T21:41:58.898Z,13.90
2019-03-31T21:44:30.371Z,13.90
2019-03-31T21:47:00.531Z,13.90
2019-03-31T21:49:29.123Z,13.80
2019-03-31T21:51:59.441Z,13.80
2019-03-31T21:54:28.077Z,13.80
2019-03-31T21:56:56.729Z,13.80
2019-03-31T21:59:25.570Z,13.70
2019-03-31T22:01:54.580Z,13.70
2019-03-31T22:04:23.367Z,13.70
2019-03-31T22:06:52.165Z,13.70
2019-03-31T22:09:20.744Z,13.70
2019-03-31T22:11:49.310Z,13.70
2019-03-31T22:14:18.004Z,13.60
2019-03-31T22:16:46.666Z,13.60
2019-03-31T22:19:17.345Z,13.60
2019-03-31T22:21:45.912Z,13.60
2019-03-31T22:24:14.631Z,13.60
2019-03-31T22:26:43.307Z,13.50
2019-03-31T22:29:11.865Z,13.50
2019-03-31T22:31:40.524Z,13.40
2019-03-31T22:34:12.738Z,13.40
2019-03-31T22:36:41.389Z,13.40
2019-03-31T22:39:10.431Z,13.30
2019-03-31T22:41:39.010Z,13.40
2019-03-31T22:44:07.678Z,13.30
2019-03-31T22:46:36.264Z,13.30
2019-03-31T22:49:04.853Z,13.30
2019-03-31T22:51:33.524Z,13.30
2019-03-31T22:54:03.703Z,13.30
2019-03-31T22:56:32.322Z,13.30
2019-03-31T22:59:00.965Z,13.30
2019-03-31T23:01:43.126Z,13.30
2019-03-31T23:04:14.299Z,13.30
2019-03-31T23:06:53.559Z,13.30
2019-03-31T23:09:23.679Z,13.20
2019-03-31T23:11:53.908Z,13.20
2019-03-31T23:14:22.463Z,13.20
2019-03-31T23:16:51.053Z,13.20
2019-03-31T23:19:19.625Z,13.20
2019-03-31T23:21:48.253Z,13.20
2019-03-31T23:24:16.832Z,13.20
2019-03-31T23:26:45.476Z,13.20
2019-03-31T23:29:14.063Z,13.20
2019-03-31T23:31:42.635Z,13.20
2019-03-31T23:34:14.325Z,13.20
2019-03-31T23:36:42.895Z,13.20
2019-03-31T23:39:13.293Z,13.20
2019-03-31T23:41:41.837Z,13.20
2019-03-31T23:44:10.472Z,13.20
2019-03-31T23:46:39.111Z,13.10
2019-03-31T23:49:08.569Z,13.10
2019-03-31T23:51:37.153Z,13.10
2019-03-31T23:54:05.831Z,13.00
2019-03-31T23:56:34.469Z,13.00
2019-03-31T23:59:03.061Z,13.00
